Brookston, Indiana
Current Conditions -  °F | °C
As of 4:15 AM on Monday 22 Dec 2014 (Local Time) from KMCX Reporting Station
Clear Clear  
Wind Chill: 25°   Ceiling: Unl
Heat Index: 30°   Visibility: 7mi
Dew Point: 27°   Wind: 5mph
Humidity: 89%   Direction: 120°ESE
Pressure: 30"   Gusts: NA
Location:  40.6°N, 86.87°W
Report Text: KMCX 220915Z AUTO 12004KT 7SM CLR M01/M03 A3000 RMK AO2 T10121028
Loading
Personal Weather Stations






























Interactive Weather Map New forecast layout! Learn more

10-Day Weather Forecast

Advertisements
Track Severe Weather on mobile